sensor_id;sensor_type;location;lat;lon;timestamp;pressure;altitude;pressure_sealevel;temperature;humidity
73594;BME280;62064;53.406;23.500;2022-07-29T00:00:56;100232.03;;;18.98;64.45
73594;BME280;62064;53.406;23.500;2022-07-29T00:03:23;100217.84;;;18.96;64.34
73594;BME280;62064;53.406;23.500;2022-07-29T00:05:49;100223.88;;;18.98;64.48
73594;BME280;62064;53.406;23.500;2022-07-29T00:08:15;100175.41;;;18.67;64.55
73594;BME280;62064;53.406;23.500;2022-07-29T00:10:42;100227.16;;;19.00;64.04
73594;BME280;62064;53.406;23.500;2022-07-29T00:13:08;100234.84;;;19.03;64.34
73594;BME280;62064;53.406;23.500;2022-07-29T00:15:34;100236.38;;;18.99;64.15
73594;BME280;62064;53.406;23.500;2022-07-29T00:18:00;100236.28;;;18.94;64.04
73594;BME280;62064;53.406;23.500;2022-07-29T00:20:26;100234.84;;;18.92;64.67
73594;BME280;62064;53.406;23.500;2022-07-29T00:22:52;100218.69;;;18.85;64.25
73594;BME280;62064;53.406;23.500;2022-07-29T00:25:19;100232.75;;;18.94;64.29
73594;BME280;62064;53.406;23.500;2022-07-29T00:27:47;100214.66;;;18.88;64.09
73594;BME280;62064;53.406;23.500;2022-07-29T00:30:14;100228.03;;;18.89;64.51
73594;BME280;62064;53.406;23.500;2022-07-29T00:32:43;100224.13;;;18.85;64.75
73594;BME280;62064;53.406;23.500;2022-07-29T00:35:09;100208.41;;;18.75;64.48
73594;BME280;62064;53.406;23.500;2022-07-29T00:37:54;100228.72;;;18.85;65.03
73594;BME280;62064;53.406;23.500;2022-07-29T00:40:20;100222.34;;;18.79;64.99
73594;BME280;62064;53.406;23.500;2022-07-29T00:42:48;100226.50;;;18.82;64.64
73594;BME280;62064;53.406;23.500;2022-07-29T00:45:15;100211.63;;;18.72;64.76
73594;BME280;62064;53.406;23.500;2022-07-29T00:47:44;100224.84;;;18.81;64.73
73594;BME280;62064;53.406;23.500;2022-07-29T00:50:11;100231.66;;;18.83;64.98
73594;BME280;62064;53.406;23.500;2022-07-29T00:52:39;100239.81;;;18.83;64.67
73594;BME280;62064;53.406;23.500;2022-07-29T00:55:08;100230.03;;;18.82;64.71
73594;BME280;62064;53.406;23.500;2022-07-29T00:57:35;100225.66;;;18.81;64.39
73594;BME280;62064;53.406;23.500;2022-07-29T01:00:07;100224.50;;;18.77;64.47
73594;BME280;62064;53.406;23.500;2022-07-29T01:02:34;100205.72;;;18.64;64.52
73594;BME280;62064;53.406;23.500;2022-07-29T01:05:01;100228.97;;;18.71;64.06
73594;BME280;62064;53.406;23.500;2022-07-29T01:07:28;100225.34;;;18.66;64.70
73594;BME280;62064;53.406;23.500;2022-07-29T01:09:56;100210.44;;;18.57;64.20
73594;BME280;62064;53.406;23.500;2022-07-29T01:12:27;100206.56;;;18.53;64.43
73594;BME280;62064;53.406;23.500;2022-07-29T01:14:55;100212.81;;;18.53;63.83
73594;BME280;62064;53.406;23.500;2022-07-29T01:17:28;100205.47;;;18.42;64.46
73594;BME280;62064;53.406;23.500;2022-07-29T01:20:14;100224.56;;;18.47;64.48
73594;BME280;62064;53.406;23.500;2022-07-29T01:28:19;100239.78;;;18.25;64.12
73594;BME280;62064;53.406;23.500;2022-07-29T01:30:51;100210.97;;;18.01;64.37
73594;BME280;62064;53.406;23.500;2022-07-29T01:33:17;100223.97;;;17.99;63.96
73594;BME280;62064;53.406;23.500;2022-07-29T01:36:13;100225.13;;;17.91;63.82
73594;BME280;62064;53.406;23.500;2022-07-29T01:38:42;100225.56;;;17.88;63.37
73594;BME280;62064;53.406;23.500;2022-07-29T01:41:13;100234.53;;;17.89;64.43
73594;BME280;62064;53.406;23.500;2022-07-29T01:43:53;100232.97;;;17.81;64.04
73594;BME280;62064;53.406;23.500;2022-07-29T01:46:36;100234.03;;;17.80;64.80
73594;BME280;62064;53.406;23.500;2022-07-29T01:49:14;100230.72;;;17.78;64.65
73594;BME280;62064;53.406;23.500;2022-07-29T01:51:51;100228.72;;;17.73;64.35
73594;BME280;62064;53.406;23.500;2022-07-29T01:54:32;100235.44;;;17.71;64.01
73594;BME280;62064;53.406;23.500;2022-07-29T01:57:01;100238.00;;;17.66;62.78
73594;BME280;62064;53.406;23.500;2022-07-29T01:59:30;100236.81;;;17.62;62.88
73594;BME280;62064;53.406;23.500;2022-07-29T02:02:00;100216.56;;;17.46;63.45
73594;BME280;62064;53.406;23.500;2022-07-29T02:04:28;100235.69;;;17.51;63.63
73594;BME280;62064;53.406;23.500;2022-07-29T02:06:58;100222.44;;;17.43;64.37
73594;BME280;62064;53.406;23.500;2022-07-29T02:09:25;100231.16;;;17.45;64.56
73594;BME280;62064;53.406;23.500;2022-07-29T02:11:53;100241.53;;;17.48;64.98
73594;BME280;62064;53.406;23.500;2022-07-29T02:14:22;100240.28;;;17.51;65.34
73594;BME280;62064;53.406;23.500;2022-07-29T02:16:52;100243.09;;;17.56;65.22
73594;BME280;62064;53.406;23.500;2022-07-29T02:19:21;100245.78;;;17.62;65.04
73594;BME280;62064;53.406;23.500;2022-07-29T02:21:48;100250.03;;;17.70;64.72
73594;BME280;62064;53.406;23.500;2022-07-29T02:24:15;100233.78;;;17.70;65.05
73594;BME280;62064;53.406;23.500;2022-07-29T02:26:44;100219.03;;;17.66;64.93
73594;BME280;62064;53.406;23.500;2022-07-29T02:29:21;100242.78;;;17.82;64.95
73594;BME280;62064;53.406;23.500;2022-07-29T02:31:49;100256.09;;;17.83;64.42
73594;BME280;62064;53.406;23.500;2022-07-29T02:34:17;100246.91;;;17.84;64.35
73594;BME280;62064;53.406;23.500;2022-07-29T02:36:44;100251.97;;;17.81;64.73
73594;BME280;62064;53.406;23.500;2022-07-29T02:39:12;100249.25;;;17.81;64.22
73594;BME280;62064;53.406;23.500;2022-07-29T02:41:50;100249.47;;;17.79;64.45
73594;BME280;62064;53.406;23.500;2022-07-29T02:44:19;100250.09;;;17.81;64.19
73594;BME280;62064;53.406;23.500;2022-07-29T02:46:51;100241.59;;;17.78;63.99
73594;BME280;62064;53.406;23.500;2022-07-29T02:51:53;100238.97;;;17.71;63.91
73594;BME280;62064;53.406;23.500;2022-07-29T02:54:28;100231.28;;;17.68;63.83
73594;BME280;62064;53.406;23.500;2022-07-29T02:56:59;100236.63;;;17.75;64.36
73594;BME280;62064;53.406;23.500;2022-07-29T02:59:30;100247.00;;;17.78;63.71
73594;BME280;62064;53.406;23.500;2022-07-29T03:01:59;100241.28;;;17.68;63.79
73594;BME280;62064;53.406;23.500;2022-07-29T03:04:27;100248.00;;;17.65;63.52
73594;BME280;62064;53.406;23.500;2022-07-29T03:06:58;100231.06;;;17.52;63.84
73594;BME280;62064;53.406;23.500;2022-07-29T03:09:25;100253.75;;;17.57;64.32
73594;BME280;62064;53.406;23.500;2022-07-29T03:11:51;100238.41;;;17.51;63.75
73594;BME280;62064;53.406;23.500;2022-07-29T03:14:20;100254.38;;;17.59;63.63
73594;BME280;62064;53.406;23.500;2022-07-29T03:16:49;100247.72;;;17.55;63.64
73594;BME280;62064;53.406;23.500;2022-07-29T03:19:16;100242.16;;;17.50;63.79
73594;BME280;62064;53.406;23.500;2022-07-29T03:21:42;100251.69;;;17.53;63.40
73594;BME280;62064;53.406;23.500;2022-07-29T03:24:08;100236.94;;;17.49;63.51
73594;BME280;62064;53.406;23.500;2022-07-29T03:26:34;100255.16;;;17.60;63.76
73594;BME280;62064;53.406;23.500;2022-07-29T03:29:00;100261.78;;;17.64;63.06
73594;BME280;62064;53.406;23.500;2022-07-29T03:31:26;100257.34;;;17.69;63.23
73594;BME280;62064;53.406;23.500;2022-07-29T03:33:52;100258.19;;;17.70;62.99
73594;BME280;62064;53.406;23.500;2022-07-29T03:36:19;100259.22;;;17.69;63.15
73594;BME280;62064;53.406;23.500;2022-07-29T03:38:45;100245.53;;;17.64;62.78
73594;BME280;62064;53.406;23.500;2022-07-29T03:41:13;100259.84;;;17.71;62.78
73594;BME280;62064;53.406;23.500;2022-07-29T03:43:41;100255.00;;;17.73;62.86
73594;BME280;62064;53.406;23.500;2022-07-29T03:46:09;100246.28;;;17.71;62.44
73594;BME280;62064;53.406;23.500;2022-07-29T03:48:38;100249.56;;;17.73;62.28
73594;BME280;62064;53.406;23.500;2022-07-29T03:51:06;100255.34;;;17.76;62.92
73594;BME280;62064;53.406;23.500;2022-07-29T03:53:32;100262.81;;;17.81;62.75
73594;BME280;62064;53.406;23.500;2022-07-29T03:56:01;100251.81;;;17.76;63.20
73594;BME280;62064;53.406;23.500;2022-07-29T03:58:30;100258.56;;;17.85;62.91
73594;BME280;62064;53.406;23.500;2022-07-29T04:00:57;100270.75;;;17.94;62.92
73594;BME280;62064;53.406;23.500;2022-07-29T04:03:24;100258.47;;;17.92;62.36
73594;BME280;62064;53.406;23.500;2022-07-29T04:06:02;100260.28;;;17.98;62.67
73594;BME280;62064;53.406;23.500;2022-07-29T04:08:28;100258.75;;;18.02;61.89
73594;BME280;62064;53.406;23.500;2022-07-29T04:10:55;100242.19;;;17.92;61.91
73594;BME280;62064;53.406;23.500;2022-07-29T04:13:21;100259.59;;;18.02;62.13
73594;BME280;62064;53.406;23.500;2022-07-29T04:15:47;100256.03;;;18.02;62.47
73594;BME280;62064;53.406;23.500;2022-07-29T04:18:14;100259.22;;;17.99;61.85
73594;BME280;62064;53.406;23.500;2022-07-29T04:20:39;100267.09;;;18.00;62.06
73594;BME280;62064;53.406;23.500;2022-07-29T04:23:06;100265.84;;;18.03;61.84
73594;BME280;62064;53.406;23.500;2022-07-29T04:25:32;100265.16;;;18.07;61.76
73594;BME280;62064;53.406;23.500;2022-07-29T04:27:58;100268.22;;;18.11;61.84
73594;BME280;62064;53.406;23.500;2022-07-29T04:30:27;100262.44;;;18.07;61.33
73594;BME280;62064;53.406;23.500;2022-07-29T04:32:54;100271.63;;;18.06;61.28
73594;BME280;62064;53.406;23.500;2022-07-29T04:35:20;100248.44;;;17.92;61.99
73594;BME280;62064;53.406;23.500;2022-07-29T04:37:46;100271.25;;;18.03;61.97
73594;BME280;62064;53.406;23.500;2022-07-29T04:40:12;100269.13;;;18.05;62.19
73594;BME280;62064;53.406;23.500;2022-07-29T04:42:39;100260.78;;;18.06;62.12
73594;BME280;62064;53.406;23.500;2022-07-29T04:45:05;100278.34;;;18.15;61.69
73594;BME280;62064;53.406;23.500;2022-07-29T04:47:32;100266.81;;;18.20;61.38
73594;BME280;62064;53.406;23.500;2022-07-29T04:49:58;100247.53;;;17.98;61.15
73594;BME280;62064;53.406;23.500;2022-07-29T04:52:24;100263.22;;;18.08;61.78
73594;BME280;62064;53.406;23.500;2022-07-29T04:54:51;100260.31;;;18.09;61.87
73594;BME280;62064;53.406;23.500;2022-07-29T04:57:17;100269.84;;;18.12;61.28
73594;BME280;62064;53.406;23.500;2022-07-29T04:59:43;100259.72;;;18.07;61.45
73594;BME280;62064;53.406;23.500;2022-07-29T05:02:09;100258.63;;;18.08;61.97
73594;BME280;62064;53.406;23.500;2022-07-29T05:04:35;100262.78;;;18.11;62.13
73594;BME280;62064;53.406;23.500;2022-07-29T05:07:02;100260.31;;;18.09;61.71
73594;BME280;62064;53.406;23.500;2022-07-29T05:09:28;100247.78;;;18.08;61.71
73594;BME280;62064;53.406;23.500;2022-07-29T05:11:54;100247.56;;;18.10;62.04
73594;BME280;62064;53.406;23.500;2022-07-29T05:14:20;100272.59;;;18.23;62.29
73594;BME280;62064;53.406;23.500;2022-07-29T05:16:46;100267.75;;;18.25;61.49
73594;BME280;62064;53.406;23.500;2022-07-29T05:19:12;100271.81;;;18.35;61.78
73594;BME280;62064;53.406;23.500;2022-07-29T05:21:38;100259.97;;;18.29;61.20
73594;BME280;62064;53.406;23.500;2022-07-29T05:24:05;100255.59;;;18.28;61.29
73594;BME280;62064;53.406;23.500;2022-07-29T05:26:31;100263.88;;;18.33;61.20
73594;BME280;62064;53.406;23.500;2022-07-29T05:28:57;100266.47;;;18.40;61.45
73594;BME280;62064;53.406;23.500;2022-07-29T05:31:23;100267.56;;;18.39;60.83
73594;BME280;62064;53.406;23.500;2022-07-29T05:33:49;100269.31;;;18.45;61.03
73594;BME280;62064;53.406;23.500;2022-07-29T05:36:15;100270.72;;;18.47;60.52
73594;BME280;62064;53.406;23.500;2022-07-29T05:38:41;100250.78;;;18.42;60.50
73594;BME280;62064;53.406;23.500;2022-07-29T05:41:07;100255.88;;;18.50;60.47
73594;BME280;62064;53.406;23.500;2022-07-29T05:43:33;100262.97;;;18.51;60.13
73594;BME280;62064;53.406;23.500;2022-07-29T05:46:00;100233.91;;;18.40;59.42
73594;BME280;62064;53.406;23.500;2022-07-29T05:48:26;100260.94;;;18.46;59.35
73594;BME280;62064;53.406;23.500;2022-07-29T05:50:52;100271.25;;;18.56;59.72
73594;BME280;62064;53.406;23.500;2022-07-29T05:53:18;100268.66;;;18.61;59.36
73594;BME280;62064;53.406;23.500;2022-07-29T05:55:44;100253.31;;;18.55;59.22
73594;BME280;62064;53.406;23.500;2022-07-29T05:58:10;100276.31;;;18.64;58.66
73594;BME280;62064;53.406;23.500;2022-07-29T06:00:37;100280.22;;;18.68;58.74
73594;BME280;62064;53.406;23.500;2022-07-29T06:03:03;100281.31;;;18.67;57.74
73594;BME280;62064;53.406;23.500;2022-07-29T06:05:28;100271.50;;;18.66;57.83
73594;BME280;62064;53.406;23.500;2022-07-29T06:07:55;100284.81;;;18.79;58.68
73594;BME280;62064;53.406;23.500;2022-07-29T06:10:22;100276.09;;;18.77;57.80
73594;BME280;62064;53.406;23.500;2022-07-29T06:12:48;100295.34;;;18.87;56.90
73594;BME280;62064;53.406;23.500;2022-07-29T06:15:14;100286.00;;;18.83;56.29
73594;BME280;62064;53.406;23.500;2022-07-29T06:17:41;100279.88;;;18.88;57.35
73594;BME280;62064;53.406;23.500;2022-07-29T06:20:08;100290.38;;;18.96;57.66
73594;BME280;62064;53.406;23.500;2022-07-29T06:22:34;100284.72;;;18.97;55.99
73594;BME280;62064;53.406;23.500;2022-07-29T06:25:01;100286.81;;;18.95;55.35
73594;BME280;62064;53.406;23.500;2022-07-29T06:27:27;100304.56;;;18.98;57.70
73594;BME280;62064;53.406;23.500;2022-07-29T06:29:53;100296.28;;;19.04;55.89
73594;BME280;62064;53.406;23.500;2022-07-29T06:32:19;100290.16;;;18.97;55.55
73594;BME280;62064;53.406;23.500;2022-07-29T06:34:45;100300.03;;;19.03;57.42
73594;BME280;62064;53.406;23.500;2022-07-29T06:37:12;100298.63;;;19.12;55.60
73594;BME280;62064;53.406;23.500;2022-07-29T06:39:38;100297.09;;;19.16;55.43
73594;BME280;62064;53.406;23.500;2022-07-29T06:42:04;100296.13;;;19.11;55.64
73594;BME280;62064;53.406;23.500;2022-07-29T06:44:31;100298.63;;;19.12;57.33
73594;BME280;62064;53.406;23.500;2022-07-29T06:47:00;100290.47;;;19.12;57.73
73594;BME280;62064;53.406;23.500;2022-07-29T06:49:26;100295.66;;;19.26;56.09
73594;BME280;62064;53.406;23.500;2022-07-29T06:51:54;100289.75;;;19.17;55.09
73594;BME280;62064;53.406;23.500;2022-07-29T06:54:21;100294.50;;;19.21;56.94
73594;BME280;62064;53.406;23.500;2022-07-29T06:56:49;100290.22;;;19.26;56.30
73594;BME280;62064;53.406;23.500;2022-07-29T06:59:20;100293.28;;;19.29;56.65
73594;BME280;62064;53.406;23.500;2022-07-29T07:01:45;100295.41;;;19.27;56.39
73594;BME280;62064;53.406;23.500;2022-07-29T07:04:15;100295.41;;;19.27;56.98
73594;BME280;62064;53.406;23.500;2022-07-29T07:07:10;100298.94;;;19.28;57.21
73594;BME280;62064;53.406;23.500;2022-07-29T07:10:14;100294.34;;;19.28;55.02
73594;BME280;62064;53.406;23.500;2022-07-29T07:12:44;100287.72;;;19.24;54.07
73594;BME280;62064;53.406;23.500;2022-07-29T07:16:01;100285.34;;;19.28;53.97
73594;BME280;62064;53.406;23.500;2022-07-29T07:18:28;100285.69;;;19.31;50.99
73594;BME280;62064;53.406;23.500;2022-07-29T07:20:56;100266.81;;;19.24;53.09
73594;BME280;62064;53.406;23.500;2022-07-29T07:23:22;100272.09;;;19.31;50.55
73594;BME280;62064;53.406;23.500;2022-07-29T07:25:50;100281.09;;;19.43;51.93
73594;BME280;62064;53.406;23.500;2022-07-29T07:28:17;100279.53;;;19.47;49.00
73594;BME280;62064;53.406;23.500;2022-07-29T07:30:44;100259.69;;;19.47;50.37
73594;BME280;62064;53.406;23.500;2022-07-29T07:33:12;100273.16;;;19.53;49.03
73594;BME280;62064;53.406;23.500;2022-07-29T07:35:38;100271.84;;;19.56;48.65
73594;BME280;62064;53.406;23.500;2022-07-29T07:38:04;100274.50;;;19.67;49.41
73594;BME280;62064;53.406;23.500;2022-07-29T07:40:31;100278.66;;;19.70;50.40
73594;BME280;62064;53.406;23.500;2022-07-29T07:42:58;100279.81;;;19.74;49.24
73594;BME280;62064;53.406;23.500;2022-07-29T07:45:25;100280.28;;;19.71;49.61
73594;BME280;62064;53.406;23.500;2022-07-29T07:47:51;100289.53;;;19.70;47.74
73594;BME280;62064;53.406;23.500;2022-07-29T07:50:17;100281.59;;;19.68;48.32
73594;BME280;62064;53.406;23.500;2022-07-29T07:52:50;100274.28;;;19.69;48.21
73594;BME280;62064;53.406;23.500;2022-07-29T07:55:18;100279.81;;;19.74;47.38
73594;BME280;62064;53.406;23.500;2022-07-29T07:57:44;100271.13;;;19.60;47.78
73594;BME280;62064;53.406;23.500;2022-07-29T08:00:12;100277.94;;;19.63;48.67
73594;BME280;62064;53.406;23.500;2022-07-29T08:02:39;100275.84;;;19.65;46.43
73594;BME280;62064;53.406;23.500;2022-07-29T08:05:08;100277.94;;;19.63;48.62
73594;BME280;62064;53.406;23.500;2022-07-29T08:07:36;100283.13;;;19.76;48.34
73594;BME280;62064;53.406;23.500;2022-07-29T08:10:03;100282.06;;;19.77;47.97
73594;BME280;62064;53.406;23.500;2022-07-29T08:12:30;100277.78;;;19.81;48.65
73594;BME280;62064;53.406;23.500;2022-07-29T08:14:56;100287.78;;;19.92;46.93
73594;BME280;62064;53.406;23.500;2022-07-29T08:17:23;100281.84;;;19.95;46.99
73594;BME280;62064;53.406;23.500;2022-07-29T08:19:49;100286.72;;;19.93;47.29
73594;BME280;62064;53.406;23.500;2022-07-29T08:22:15;100289.03;;;20.01;47.10
73594;BME280;62064;53.406;23.500;2022-07-29T08:24:42;100294.22;;;20.03;45.98
73594;BME280;62064;53.406;23.500;2022-07-29T08:27:18;100289.59;;;20.03;47.90
73594;BME280;62064;53.406;23.500;2022-07-29T08:29:45;100292.91;;;20.05;46.61
73594;BME280;62064;53.406;23.500;2022-07-29T08:32:11;100300.09;;;20.11;46.52
73594;BME280;62064;53.406;23.500;2022-07-29T08:34:37;100293.91;;;20.16;45.10
73594;BME280;62064;53.406;23.500;2022-07-29T08:37:04;100294.25;;;20.20;45.63
73594;BME280;62064;53.406;23.500;2022-07-29T08:39:30;100291.53;;;20.20;46.69
73594;BME280;62064;53.406;23.500;2022-07-29T08:41:56;100290.22;;;20.22;45.79
73594;BME280;62064;53.406;23.500;2022-07-29T08:44:23;100291.63;;;20.25;44.94
73594;BME280;62064;53.406;23.500;2022-07-29T08:46:49;100306.63;;;20.27;45.50
73594;BME280;62064;53.406;23.500;2022-07-29T08:49:16;100305.81;;;20.27;44.41
73594;BME280;62064;53.406;23.500;2022-07-29T08:51:43;100302.03;;;20.28;44.62
73594;BME280;62064;53.406;23.500;2022-07-29T08:54:09;100295.53;;;20.29;44.56
73594;BME280;62064;53.406;23.500;2022-07-29T08:56:36;100300.84;;;20.24;45.05
73594;BME280;62064;53.406;23.500;2022-07-29T08:59:05;100303.72;;;20.29;45.57
73594;BME280;62064;53.406;23.500;2022-07-29T09:01:32;100307.34;;;20.34;44.53
73594;BME280;62064;53.406;23.500;2022-07-29T09:04:01;100296.78;;;20.38;42.78
73594;BME280;62064;53.406;23.500;2022-07-29T09:06:32;100310.47;;;20.43;44.07
73594;BME280;62064;53.406;23.500;2022-07-29T09:09:00;100297.19;;;20.46;44.52
73594;BME280;62064;53.406;23.500;2022-07-29T09:11:26;100285.41;;;20.41;44.72
73594;BME280;62064;53.406;23.500;2022-07-29T09:13:53;100298.00;;;20.47;42.15
73594;BME280;62064;53.406;23.500;2022-07-29T09:16:19;100281.03;;;20.40;41.70
73594;BME280;62064;53.406;23.500;2022-07-29T09:18:46;100291.19;;;20.44;43.08
73594;BME280;62064;53.406;23.500;2022-07-29T09:21:15;100286.06;;;20.48;42.61
73594;BME280;62064;53.406;23.500;2022-07-29T09:24:09;100303.31;;;20.53;43.32
73594;BME280;62064;53.406;23.500;2022-07-29T09:26:40;100307.66;;;20.54;44.55
73594;BME280;62064;53.406;23.500;2022-07-29T09:29:11;100292.47;;;20.58;43.52
73594;BME280;62064;53.406;23.500;2022-07-29T09:31:40;100293.31;;;20.59;44.30
73594;BME280;62064;53.406;23.500;2022-07-29T09:34:07;100294.97;;;20.60;45.23
73594;BME280;62064;53.406;23.500;2022-07-29T09:36:49;100291.19;;;20.61;43.34
73594;BME280;62064;53.406;23.500;2022-07-29T09:39:27;100299.75;;;20.70;43.00
73594;BME280;62064;53.406;23.500;2022-07-29T09:41:55;100296.53;;;20.73;42.70
73594;BME280;62064;53.406;23.500;2022-07-29T09:44:22;100291.81;;;20.68;43.36
73594;BME280;62064;53.406;23.500;2022-07-29T09:47:07;100295.78;;;20.77;44.13
73594;BME280;62064;53.406;23.500;2022-07-29T09:49:34;100287.03;;;20.75;44.50
73594;BME280;62064;53.406;23.500;2022-07-29T09:52:05;100289.59;;;20.82;43.98
73594;BME280;62064;53.406;23.500;2022-07-29T09:54:32;100291.53;;;20.86;44.45
73594;BME280;62064;53.406;23.500;2022-07-29T09:57:08;100286.09;;;20.86;41.80
73594;BME280;62064;53.406;23.500;2022-07-29T09:59:38;100294.03;;;20.88;42.31
73594;BME280;62064;53.406;23.500;2022-07-29T10:02:12;100293.53;;;20.91;41.36
73594;BME280;62064;53.406;23.500;2022-07-29T10:04:40;100282.91;;;20.89;41.19
73594;BME280;62064;53.406;23.500;2022-07-29T10:07:07;100279.56;;;20.87;41.94
73594;BME280;62064;53.406;23.500;2022-07-29T10:09:34;100285.34;;;20.91;42.04
73594;BME280;62064;53.406;23.500;2022-07-29T10:12:07;100284.88;;;20.94;41.92
73594;BME280;62064;53.406;23.500;2022-07-29T10:14:35;100285.19;;;20.97;41.76
73594;BME280;62064;53.406;23.500;2022-07-29T10:17:02;100284.88;;;20.94;41.25
73594;BME280;62064;53.406;23.500;2022-07-29T10:19:30;100288.22;;;21.01;41.43
73594;BME280;62064;53.406;23.500;2022-07-29T10:21:58;100278.16;;;21.01;41.05
73594;BME280;62064;53.406;23.500;2022-07-29T10:24:27;100276.50;;;21.00;42.45
73594;BME280;62064;53.406;23.500;2022-07-29T10:27:01;100280.38;;;21.04;41.59
73594;BME280;62064;53.406;23.500;2022-07-29T10:29:31;100279.03;;;21.07;40.59
73594;BME280;62064;53.406;23.500;2022-07-29T10:37:52;100272.94;;;21.17;40.45
73594;BME280;62064;53.406;23.500;2022-07-29T10:43:31;100275.06;;;21.15;40.36
73594;BME280;62064;53.406;23.500;2022-07-29T10:46:03;100271.78;;;21.13;41.20
73594;BME280;62064;53.406;23.500;2022-07-29T10:48:30;100263.81;;;21.11;40.29
73594;BME280;62064;53.406;23.500;2022-07-29T10:51:01;100266.72;;;21.21;40.34
73594;BME280;62064;53.406;23.500;2022-07-29T10:53:51;100254.91;;;21.16;41.70
73594;BME280;62064;53.406;23.500;2022-07-29T10:56:24;100263.28;;;21.31;41.82
73594;BME280;62064;53.406;23.500;2022-07-29T11:01:47;100273.19;;;21.37;41.24
73594;BME280;62064;53.406;23.500;2022-07-29T11:04:16;100268.56;;;21.37;41.08
73594;BME280;62064;53.406;23.500;2022-07-29T11:09:33;100256.75;;;21.32;41.78
73594;BME280;62064;53.406;23.500;2022-07-29T11:11:59;100262.81;;;21.34;42.95
73594;BME280;62064;53.406;23.500;2022-07-29T11:17:18;100265.56;;;21.39;41.73
73594;BME280;62064;53.406;23.500;2022-07-29T11:19:44;100262.91;;;21.44;40.83
73594;BME280;62064;53.406;23.500;2022-07-29T11:22:11;100256.63;;;21.43;39.52
73594;BME280;62064;53.406;23.500;2022-07-29T11:24:38;100263.22;;;21.47;39.64
73594;BME280;62064;53.406;23.500;2022-07-29T11:27:08;100255.28;;;21.46;40.31
73594;BME280;62064;53.406;23.500;2022-07-29T11:29:35;100258.28;;;21.44;42.03
73594;BME280;62064;53.406;23.500;2022-07-29T11:32:14;100259.13;;;21.45;40.96
73594;BME280;62064;53.406;23.500;2022-07-29T11:34:41;100260.81;;;21.51;38.18
73594;BME280;62064;53.406;23.500;2022-07-29T11:39:34;100262.84;;;21.61;37.36
73594;BME280;62064;53.406;23.500;2022-07-29T11:43:01;100265.81;;;21.59;37.79
73594;BME280;62064;53.406;23.500;2022-07-29T11:47:34;100243.94;;;21.54;39.76
73594;BME280;62064;53.406;23.500;2022-07-29T11:50:01;100243.38;;;21.52;39.75
73594;BME280;62064;53.406;23.500;2022-07-29T11:52:41;100247.31;;;21.61;38.80
73594;BME280;62064;53.406;23.500;2022-07-29T11:55:18;100233.34;;;21.58;39.06
73594;BME280;62064;53.406;23.500;2022-07-29T11:57:49;100243.47;;;21.62;37.88
73594;BME280;62064;53.406;23.500;2022-07-29T12:00:33;100237.53;;;21.65;36.94
73594;BME280;62064;53.406;23.500;2022-07-29T12:03:02;100242.69;;;21.67;38.52
73594;BME280;62064;53.406;23.500;2022-07-29T12:05:39;100231.03;;;21.71;38.01
73594;BME280;62064;53.406;23.500;2022-07-29T12:10:33;100229.38;;;21.70;39.76
73594;BME280;62064;53.406;23.500;2022-07-29T12:12:59;100232.69;;;21.72;37.46
73594;BME280;62064;53.406;23.500;2022-07-29T12:15:26;100234.06;;;21.75;38.10
73594;BME280;62064;53.406;23.500;2022-07-29T12:17:52;100220.63;;;21.68;39.02
73594;BME280;62064;53.406;23.500;2022-07-29T12:20:26;100226.69;;;21.75;38.45
73594;BME280;62064;53.406;23.500;2022-07-29T12:22:53;100224.22;;;21.74;39.11
73594;BME280;62064;53.406;23.500;2022-07-29T12:25:21;100224.94;;;21.64;40.18
73594;BME280;62064;53.406;23.500;2022-07-29T12:27:57;100238.69;;;21.74;40.17
73594;BME280;62064;53.406;23.500;2022-07-29T12:30:34;100238.44;;;21.76;40.31
73594;BME280;62064;53.406;23.500;2022-07-29T12:33:00;100234.88;;;21.75;40.78
73594;BME280;62064;53.406;23.500;2022-07-29T12:35:27;100232.22;;;21.80;40.63
73594;BME280;62064;53.406;23.500;2022-07-29T12:37:53;100220.47;;;21.80;39.15
73594;BME280;62064;53.406;23.500;2022-07-29T12:40:20;100224.03;;;21.80;40.40
73594;BME280;62064;53.406;23.500;2022-07-29T12:45:34;100222.16;;;21.86;39.53
73594;BME280;62064;53.406;23.500;2022-07-29T12:48:01;100211.22;;;21.81;40.48
73594;BME280;62064;53.406;23.500;2022-07-29T12:50:28;100224.09;;;21.90;40.41
73594;BME280;62064;53.406;23.500;2022-07-29T12:53:08;100211.22;;;21.86;39.86
73594;BME280;62064;53.406;23.500;2022-07-29T12:55:54;100220.25;;;21.86;40.78
73594;BME280;62064;53.406;23.500;2022-07-29T13:01:08;100217.03;;;21.89;41.86
73594;BME280;62064;53.406;23.500;2022-07-29T13:06:36;100231.56;;;21.95;40.46
73594;BME280;62064;53.406;23.500;2022-07-29T13:11:50;100216.59;;;22.02;39.30
73594;BME280;62064;53.406;23.500;2022-07-29T13:14:37;100221.53;;;22.06;39.33
73594;BME280;62064;53.406;23.500;2022-07-29T13:17:13;100211.16;;;22.02;40.09
73594;BME280;62064;53.406;23.500;2022-07-29T13:22:13;100202.72;;;22.04;40.12
73594;BME280;62064;53.406;23.500;2022-07-29T13:24:49;100193.63;;;21.98;40.63
73594;BME280;62064;53.406;23.500;2022-07-29T13:27:17;100215.59;;;22.09;40.37
73594;BME280;62064;53.406;23.500;2022-07-29T13:29:44;100208.78;;;22.11;39.88
73594;BME280;62064;53.406;23.500;2022-07-29T13:32:11;100200.03;;;22.09;39.86
73594;BME280;62064;53.406;23.500;2022-07-29T13:34:39;100201.41;;;22.12;40.11
73594;BME280;62064;53.406;23.500;2022-07-29T13:37:05;100204.44;;;22.15;40.26